sensor_id;sensor_type;location;lat;lon;timestamp;temperature;humidity
23130;DHT22;11734;51.046;13.778;2024-01-11T00:01:51;-5.80;99.90
23130;DHT22;11734;51.046;13.778;2024-01-11T00:04:18;-5.80;99.90
23130;DHT22;11734;51.046;13.778;2024-01-11T00:06:45;-5.80;99.90
23130;DHT22;11734;51.046;13.778;2024-01-11T00:09:12;-5.80;99.90
23130;DHT22;11734;51.046;13.778;2024-01-11T00:11:39;-5.90;99.90
23130;DHT22;11734;51.046;13.778;2024-01-11T00:14:06;-5.90;99.90
23130;DHT22;11734;51.046;13.778;2024-01-11T00:16:33;-5.90;99.90
23130;DHT22;11734;51.046;13.778;2024-01-11T00:19:00;-5.90;99.90
23130;DHT22;11734;51.046;13.778;2024-01-11T00:21:28;-5.90;99.90
23130;DHT22;11734;51.046;13.778;2024-01-11T00:23:55;-5.90;99.90
23130;DHT22;11734;51.046;13.778;2024-01-11T00:26:21;-5.90;99.90
23130;DHT22;11734;51.046;13.778;2024-01-11T00:28:48;-5.90;99.90
23130;DHT22;11734;51.046;13.778;2024-01-11T00:31:15;-5.90;99.90
23130;DHT22;11734;51.046;13.778;2024-01-11T00:33:42;-5.90;99.90
23130;DHT22;11734;51.046;13.778;2024-01-11T00:36:09;-5.90;99.90
23130;DHT22;11734;51.046;13.778;2024-01-11T00:38:36;-6.00;99.90
23130;DHT22;11734;51.046;13.778;2024-01-11T00:41:03;-6.00;99.90
23130;DHT22;11734;51.046;13.778;2024-01-11T00:43:30;-6.00;99.90
23130;DHT22;11734;51.046;13.778;2024-01-11T00:45:58;-6.10;99.90
23130;DHT22;11734;51.046;13.778;2024-01-11T00:48:25;-6.10;99.90
23130;DHT22;11734;51.046;13.778;2024-01-11T00:50:52;-6.10;99.90
23130;DHT22;11734;51.046;13.778;2024-01-11T00:53:20;-6.10;99.90
23130;DHT22;11734;51.046;13.778;2024-01-11T00:55:47;-6.10;99.90
23130;DHT22;11734;51.046;13.778;2024-01-11T00:58:14;-6.10;99.90
23130;DHT22;11734;51.046;13.778;2024-01-11T01:00:41;-6.10;99.90
23130;DHT22;11734;51.046;13.778;2024-01-11T01:03:08;-6.10;99.90
23130;DHT22;11734;51.046;13.778;2024-01-11T01:05:35;-6.10;99.90
23130;DHT22;11734;51.046;13.778;2024-01-11T01:08:02;-6.10;99.90
23130;DHT22;11734;51.046;13.778;2024-01-11T01:10:29;-6.10;99.90
23130;DHT22;11734;51.046;13.778;2024-01-11T01:12:56;-6.10;99.90
23130;DHT22;11734;51.046;13.778;2024-01-11T01:15:23;-6.20;99.90
23130;DHT22;11734;51.046;13.778;2024-01-11T01:17:50;-6.20;99.90
23130;DHT22;11734;51.046;13.778;2024-01-11T01:20:17;-6.30;99.90
23130;DHT22;11734;51.046;13.778;2024-01-11T01:22:44;-6.40;99.90
23130;DHT22;11734;51.046;13.778;2024-01-11T01:25:11;-6.40;99.90
23130;DHT22;11734;51.046;13.778;2024-01-11T01:27:38;-6.30;99.90
23130;DHT22;11734;51.046;13.778;2024-01-11T01:30:05;-6.30;99.90
23130;DHT22;11734;51.046;13.778;2024-01-11T01:32:33;-6.30;99.90
23130;DHT22;11734;51.046;13.778;2024-01-11T01:35:01;-6.30;99.90
23130;DHT22;11734;51.046;13.778;2024-01-11T01:37:28;-6.30;99.90
23130;DHT22;11734;51.046;13.778;2024-01-11T01:39:55;-6.40;99.90
23130;DHT22;11734;51.046;13.778;2024-01-11T01:42:22;-6.40;99.90
23130;DHT22;11734;51.046;13.778;2024-01-11T01:44:49;-6.40;99.90
23130;DHT22;11734;51.046;13.778;2024-01-11T01:47:16;-6.40;99.90
23130;DHT22;11734;51.046;13.778;2024-01-11T01:49:44;-6.40;99.90
23130;DHT22;11734;51.046;13.778;2024-01-11T01:52:13;-6.40;99.90
23130;DHT22;11734;51.046;13.778;2024-01-11T01:54:41;-6.40;99.90
23130;DHT22;11734;51.046;13.778;2024-01-11T01:57:09;-6.40;99.90
23130;DHT22;11734;51.046;13.778;2024-01-11T01:59:37;-6.40;99.90
23130;DHT22;11734;51.046;13.778;2024-01-11T02:02:06;-6.40;99.90
23130;DHT22;11734;51.046;13.778;2024-01-11T02:04:34;-6.40;99.90
23130;DHT22;11734;51.046;13.778;2024-01-11T02:07:02;-6.40;99.90
23130;DHT22;11734;51.046;13.778;2024-01-11T02:09:30;-6.40;99.90
23130;DHT22;11734;51.046;13.778;2024-01-11T02:11:58;-6.40;99.90
23130;DHT22;11734;51.046;13.778;2024-01-11T02:14:25;-6.50;99.90
23130;DHT22;11734;51.046;13.778;2024-01-11T02:16:53;-6.50;99.90
23130;DHT22;11734;51.046;13.778;2024-01-11T02:19:20;-6.60;99.90
23130;DHT22;11734;51.046;13.778;2024-01-11T02:21:49;-6.60;99.90
23130;DHT22;11734;51.046;13.778;2024-01-11T02:24:19;-6.60;99.90
23130;DHT22;11734;51.046;13.778;2024-01-11T02:29:27;-6.60;99.90
23130;DHT22;11734;51.046;13.778;2024-01-11T02:31:58;-6.60;99.90
23130;DHT22;11734;51.046;13.778;2024-01-11T02:34:27;-6.60;99.90
23130;DHT22;11734;51.046;13.778;2024-01-11T02:36:54;-6.60;99.90
23130;DHT22;11734;51.046;13.778;2024-01-11T02:39:23;-6.60;99.90
23130;DHT22;11734;51.046;13.778;2024-01-11T02:41:51;-6.60;99.90
23130;DHT22;11734;51.046;13.778;2024-01-11T02:44:18;-6.70;99.90
23130;DHT22;11734;51.046;13.778;2024-01-11T02:46:45;-6.70;99.90
23130;DHT22;11734;51.046;13.778;2024-01-11T02:49:12;-6.70;99.90
23130;DHT22;11734;51.046;13.778;2024-01-11T02:51:39;-6.80;99.90
23130;DHT22;11734;51.046;13.778;2024-01-11T02:54:06;-6.80;99.90
23130;DHT22;11734;51.046;13.778;2024-01-11T02:56:33;-6.90;99.90
23130;DHT22;11734;51.046;13.778;2024-01-11T02:59:00;-6.90;99.90
23130;DHT22;11734;51.046;13.778;2024-01-11T03:01:27;-6.90;99.90
23130;DHT22;11734;51.046;13.778;2024-01-11T03:03:55;-6.90;99.90
23130;DHT22;11734;51.046;13.778;2024-01-11T03:06:23;-6.90;99.90
23130;DHT22;11734;51.046;13.778;2024-01-11T03:08:50;-6.90;99.90
23130;DHT22;11734;51.046;13.778;2024-01-11T03:11:17;-6.90;99.90
23130;DHT22;11734;51.046;13.778;2024-01-11T03:13:44;-6.80;99.90
23130;DHT22;11734;51.046;13.778;2024-01-11T03:16:12;-6.90;99.90
23130;DHT22;11734;51.046;13.778;2024-01-11T03:18:40;-6.80;99.90
23130;DHT22;11734;51.046;13.778;2024-01-11T03:21:07;-6.80;99.90
23130;DHT22;11734;51.046;13.778;2024-01-11T03:23:34;-6.80;99.90
23130;DHT22;11734;51.046;13.778;2024-01-11T03:26:01;-6.90;99.90
23130;DHT22;11734;51.046;13.778;2024-01-11T03:28:29;-7.00;99.90
23130;DHT22;11734;51.046;13.778;2024-01-11T03:30:56;-7.00;99.90
23130;DHT22;11734;51.046;13.778;2024-01-11T03:33:24;-7.00;99.90
23130;DHT22;11734;51.046;13.778;2024-01-11T03:35:51;-7.00;99.90
23130;DHT22;11734;51.046;13.778;2024-01-11T03:38:18;-7.00;99.90
23130;DHT22;11734;51.046;13.778;2024-01-11T03:40:45;-7.00;99.90
23130;DHT22;11734;51.046;13.778;2024-01-11T03:43:12;-7.60;99.90
23130;DHT22;11734;51.046;13.778;2024-01-11T03:45:39;-7.00;99.90
23130;DHT22;11734;51.046;13.778;2024-01-11T03:48:06;-6.90;99.90
23130;DHT22;11734;51.046;13.778;2024-01-11T03:50:33;-6.90;99.90
23130;DHT22;11734;51.046;13.778;2024-01-11T03:53:00;-6.90;99.90
23130;DHT22;11734;51.046;13.778;2024-01-11T03:55:27;-7.00;99.90
23130;DHT22;11734;51.046;13.778;2024-01-11T03:57:54;-7.00;99.90
23130;DHT22;11734;51.046;13.778;2024-01-11T04:00:21;-7.00;99.90
23130;DHT22;11734;51.046;13.778;2024-01-11T04:02:48;-7.10;99.90
23130;DHT22;11734;51.046;13.778;2024-01-11T04:05:15;-7.10;99.90
23130;DHT22;11734;51.046;13.778;2024-01-11T04:07:44;-7.10;99.90
23130;DHT22;11734;51.046;13.778;2024-01-11T04:10:11;-7.10;99.90
23130;DHT22;11734;51.046;13.778;2024-01-11T04:12:38;-7.20;99.90
23130;DHT22;11734;51.046;13.778;2024-01-11T04:15:05;-7.10;99.90
23130;DHT22;11734;51.046;13.778;2024-01-11T04:17:32;-7.10;99.90
23130;DHT22;11734;51.046;13.778;2024-01-11T04:20:00;-7.10;99.90
23130;DHT22;11734;51.046;13.778;2024-01-11T04:22:28;-7.10;99.90
23130;DHT22;11734;51.046;13.778;2024-01-11T04:24:55;-7.10;99.90
23130;DHT22;11734;51.046;13.778;2024-01-11T04:27:22;-7.00;99.90
23130;DHT22;11734;51.046;13.778;2024-01-11T04:29:48;-7.00;99.90
23130;DHT22;11734;51.046;13.778;2024-01-11T04:32:15;-7.00;99.90
23130;DHT22;11734;51.046;13.778;2024-01-11T04:34:42;-6.90;99.90
23130;DHT22;11734;51.046;13.778;2024-01-11T04:37:09;-7.00;99.90
23130;DHT22;11734;51.046;13.778;2024-01-11T04:39:37;-7.00;99.90
23130;DHT22;11734;51.046;13.778;2024-01-11T04:42:03;-7.00;99.90
23130;DHT22;11734;51.046;13.778;2024-01-11T04:44:31;-7.00;99.90
23130;DHT22;11734;51.046;13.778;2024-01-11T04:46:57;-7.10;99.90
23130;DHT22;11734;51.046;13.778;2024-01-11T04:49:24;-7.10;99.90
23130;DHT22;11734;51.046;13.778;2024-01-11T04:51:51;-6.50;99.90
23130;DHT22;11734;51.046;13.778;2024-01-11T04:54:18;-6.10;99.90
23130;DHT22;11734;51.046;13.778;2024-01-11T04:56:45;-5.70;99.90
23130;DHT22;11734;51.046;13.778;2024-01-11T04:59:12;-5.60;99.90
23130;DHT22;11734;51.046;13.778;2024-01-11T05:01:39;-5.70;99.90
23130;DHT22;11734;51.046;13.778;2024-01-11T05:04:08;-5.90;99.90
23130;DHT22;11734;51.046;13.778;2024-01-11T05:06:35;-6.10;99.90
23130;DHT22;11734;51.046;13.778;2024-01-11T05:09:02;-6.20;99.90
23130;DHT22;11734;51.046;13.778;2024-01-11T05:11:31;-6.30;99.90
23130;DHT22;11734;51.046;13.778;2024-01-11T05:13:58;-6.60;99.90
23130;DHT22;11734;51.046;13.778;2024-01-11T05:16:27;-6.70;99.90
23130;DHT22;11734;51.046;13.778;2024-01-11T05:18:55;-6.80;99.90
23130;DHT22;11734;51.046;13.778;2024-01-11T05:21:23;-6.90;99.90
23130;DHT22;11734;51.046;13.778;2024-01-11T05:23:51;-7.10;99.90
23130;DHT22;11734;51.046;13.778;2024-01-11T05:26:19;-7.10;99.90
23130;DHT22;11734;51.046;13.778;2024-01-11T05:28:47;-7.10;99.90
23130;DHT22;11734;51.046;13.778;2024-01-11T05:31:15;-7.00;99.90
23130;DHT22;11734;51.046;13.778;2024-01-11T05:33:43;-7.00;99.90
23130;DHT22;11734;51.046;13.778;2024-01-11T05:36:10;-7.00;99.90
23130;DHT22;11734;51.046;13.778;2024-01-11T05:38:39;-7.00;99.90
23130;DHT22;11734;51.046;13.778;2024-01-11T05:41:07;-7.00;99.90
23130;DHT22;11734;51.046;13.778;2024-01-11T05:43:35;-7.00;99.90
23130;DHT22;11734;51.046;13.778;2024-01-11T05:46:02;-7.00;99.90
23130;DHT22;11734;51.046;13.778;2024-01-11T05:48:29;-7.00;99.90
23130;DHT22;11734;51.046;13.778;2024-01-11T05:50:56;-7.10;99.90
23130;DHT22;11734;51.046;13.778;2024-01-11T05:53:23;-7.10;99.90
23130;DHT22;11734;51.046;13.778;2024-01-11T05:55:51;-7.10;99.90
23130;DHT22;11734;51.046;13.778;2024-01-11T05:58:21;-7.10;99.90
23130;DHT22;11734;51.046;13.778;2024-01-11T06:00:48;-7.10;99.90
23130;DHT22;11734;51.046;13.778;2024-01-11T06:03:15;-7.10;99.90
23130;DHT22;11734;51.046;13.778;2024-01-11T06:05:42;-7.10;99.90
23130;DHT22;11734;51.046;13.778;2024-01-11T06:08:09;-7.10;99.90
23130;DHT22;11734;51.046;13.778;2024-01-11T06:10:36;-7.10;99.90
23130;DHT22;11734;51.046;13.778;2024-01-11T06:13:04;-7.20;99.90
23130;DHT22;11734;51.046;13.778;2024-01-11T06:15:31;-7.20;99.90
23130;DHT22;11734;51.046;13.778;2024-01-11T06:17:58;-7.20;99.90
23130;DHT22;11734;51.046;13.778;2024-01-11T06:20:25;-7.20;99.90
23130;DHT22;11734;51.046;13.778;2024-01-11T06:22:52;-7.20;99.90
23130;DHT22;11734;51.046;13.778;2024-01-11T06:25:19;-7.10;99.90
23130;DHT22;11734;51.046;13.778;2024-01-11T06:27:47;-7.10;99.90
23130;DHT22;11734;51.046;13.778;2024-01-11T06:30:14;-7.10;99.90
23130;DHT22;11734;51.046;13.778;2024-01-11T06:32:41;-7.10;99.90
23130;DHT22;11734;51.046;13.778;2024-01-11T06:35:08;-7.20;99.90
23130;DHT22;11734;51.046;13.778;2024-01-11T06:37:36;-7.20;99.90
23130;DHT22;11734;51.046;13.778;2024-01-11T06:40:03;-7.20;99.90
23130;DHT22;11734;51.046;13.778;2024-01-11T06:42:31;-7.10;99.90
23130;DHT22;11734;51.046;13.778;2024-01-11T06:44:58;-7.00;99.90
23130;DHT22;11734;51.046;13.778;2024-01-11T06:47:25;-7.00;99.90
23130;DHT22;11734;51.046;13.778;2024-01-11T06:49:53;-6.90;99.90
23130;DHT22;11734;51.046;13.778;2024-01-11T06:52:20;-6.90;99.90
23130;DHT22;11734;51.046;13.778;2024-01-11T06:54:47;-7.00;99.90
23130;DHT22;11734;51.046;13.778;2024-01-11T06:57:14;-7.00;99.90
23130;DHT22;11734;51.046;13.778;2024-01-11T06:59:41;-7.00;99.90
23130;DHT22;11734;51.046;13.778;2024-01-11T07:02:08;-7.10;99.90
23130;DHT22;11734;51.046;13.778;2024-01-11T07:04:35;-7.20;99.90
23130;DHT22;11734;51.046;13.778;2024-01-11T07:07:02;-7.20;99.90
23130;DHT22;11734;51.046;13.778;2024-01-11T07:09:31;-7.20;99.90
23130;DHT22;11734;51.046;13.778;2024-01-11T07:11:58;-7.20;99.90
23130;DHT22;11734;51.046;13.778;2024-01-11T07:14:25;-7.10;99.90
23130;DHT22;11734;51.046;13.778;2024-01-11T07:16:52;-7.10;99.90
23130;DHT22;11734;51.046;13.778;2024-01-11T07:19:19;-7.10;99.90
23130;DHT22;11734;51.046;13.778;2024-01-11T07:21:47;-7.00;99.90
23130;DHT22;11734;51.046;13.778;2024-01-11T07:24:13;-7.00;99.90
23130;DHT22;11734;51.046;13.778;2024-01-11T07:26:41;-7.00;99.90
23130;DHT22;11734;51.046;13.778;2024-01-11T07:29:08;-7.00;99.90
23130;DHT22;11734;51.046;13.778;2024-01-11T07:31:35;-6.90;99.90
23130;DHT22;11734;51.046;13.778;2024-01-11T07:34:02;-6.80;99.90
23130;DHT22;11734;51.046;13.778;2024-01-11T07:36:29;-6.80;99.90
23130;DHT22;11734;51.046;13.778;2024-01-11T07:38:56;-6.70;99.90
23130;DHT22;11734;51.046;13.778;2024-01-11T07:41:24;-6.70;99.90
23130;DHT22;11734;51.046;13.778;2024-01-11T07:43:51;-6.60;99.90
23130;DHT22;11734;51.046;13.778;2024-01-11T07:46:20;-6.50;99.90
23130;DHT22;11734;51.046;13.778;2024-01-11T07:49:05;-6.50;99.90
23130;DHT22;11734;51.046;13.778;2024-01-11T07:51:33;-6.40;99.90
23130;DHT22;11734;51.046;13.778;2024-01-11T07:54:01;-6.40;99.90
23130;DHT22;11734;51.046;13.778;2024-01-11T07:56:29;-6.30;99.90
23130;DHT22;11734;51.046;13.778;2024-01-11T07:58:56;-6.20;99.90
23130;DHT22;11734;51.046;13.778;2024-01-11T08:01:24;-6.20;99.90
23130;DHT22;11734;51.046;13.778;2024-01-11T08:03:51;-6.20;99.90
23130;DHT22;11734;51.046;13.778;2024-01-11T08:06:19;-6.20;99.90
23130;DHT22;11734;51.046;13.778;2024-01-11T08:08:46;-6.10;99.90
23130;DHT22;11734;51.046;13.778;2024-01-11T08:11:19;-6.10;99.90
23130;DHT22;11734;51.046;13.778;2024-01-11T08:13:46;-6.10;99.90
23130;DHT22;11734;51.046;13.778;2024-01-11T08:16:17;-6.10;99.90
23130;DHT22;11734;51.046;13.778;2024-01-11T08:18:44;-5.90;99.90
23130;DHT22;11734;51.046;13.778;2024-01-11T08:21:12;-5.80;99.90
23130;DHT22;11734;51.046;13.778;2024-01-11T08:23:40;-5.70;99.90
23130;DHT22;11734;51.046;13.778;2024-01-11T08:26:15;-5.50;99.90
23130;DHT22;11734;51.046;13.778;2024-01-11T08:28:43;-5.40;99.90
23130;DHT22;11734;51.046;13.778;2024-01-11T08:31:10;-5.40;99.90
23130;DHT22;11734;51.046;13.778;2024-01-11T08:33:37;-5.20;99.90
23130;DHT22;11734;51.046;13.778;2024-01-11T08:36:05;-5.20;99.90
23130;DHT22;11734;51.046;13.778;2024-01-11T08:38:33;-5.10;99.90
23130;DHT22;11734;51.046;13.778;2024-01-11T08:41:02;-5.00;99.90
23130;DHT22;11734;51.046;13.778;2024-01-11T08:43:30;-4.90;99.90
23130;DHT22;11734;51.046;13.778;2024-01-11T08:45:57;-4.70;99.90
23130;DHT22;11734;51.046;13.778;2024-01-11T08:48:24;-4.80;99.90
23130;DHT22;11734;51.046;13.778;2024-01-11T08:50:51;-4.90;99.90
23130;DHT22;11734;51.046;13.778;2024-01-11T08:53:18;-4.80;99.90
23130;DHT22;11734;51.046;13.778;2024-01-11T08:55:46;-4.70;99.90
23130;DHT22;11734;51.046;13.778;2024-01-11T08:58:14;-4.60;99.90
23130;DHT22;11734;51.046;13.778;2024-01-11T09:00:41;-4.30;99.90
23130;DHT22;11734;51.046;13.778;2024-01-11T09:03:08;-4.20;99.90
23130;DHT22;11734;51.046;13.778;2024-01-11T09:05:35;-4.00;99.90
23130;DHT22;11734;51.046;13.778;2024-01-11T09:08:02;-4.00;99.90
23130;DHT22;11734;51.046;13.778;2024-01-11T09:10:33;-4.10;99.90
23130;DHT22;11734;51.046;13.778;2024-01-11T09:13:01;-4.00;99.90
23130;DHT22;11734;51.046;13.778;2024-01-11T09:15:28;-4.00;99.90
23130;DHT22;11734;51.046;13.778;2024-01-11T09:17:55;-4.30;99.90
23130;DHT22;11734;51.046;13.778;2024-01-11T09:20:22;-4.10;99.90
23130;DHT22;11734;51.046;13.778;2024-01-11T09:22:49;-4.00;99.90
23130;DHT22;11734;51.046;13.778;2024-01-11T09:25:17;-3.90;99.90
23130;DHT22;11734;51.046;13.778;2024-01-11T09:27:43;-3.80;99.90
23130;DHT22;11734;51.046;13.778;2024-01-11T09:30:11;-3.70;99.90
23130;DHT22;11734;51.046;13.778;2024-01-11T09:32:38;-3.60;99.90
23130;DHT22;11734;51.046;13.778;2024-01-11T09:35:05;-3.50;99.90
23130;DHT22;11734;51.046;13.778;2024-01-11T09:37:32;-3.40;99.90
23130;DHT22;11734;51.046;13.778;2024-01-11T09:39:59;-3.40;99.90
23130;DHT22;11734;51.046;13.778;2024-01-11T09:42:30;-3.20;99.90
23130;DHT22;11734;51.046;13.778;2024-01-11T09:44:58;-2.90;99.90
23130;DHT22;11734;51.046;13.778;2024-01-11T09:47:25;-2.70;99.90
23130;DHT22;11734;51.046;13.778;2024-01-11T09:49:53;-2.30;99.90
